sensor_id;sensor_type;location;lat;lon;timestamp;pressure;altitude;pressure_sealevel;temperature;humidity
9523;BME280;63165;43.016;25.784;2023-09-07T00:00:46;100559.28;;;18.80;100.00
9523;BME280;63165;43.016;25.784;2023-09-07T00:03:14;100574.38;;;18.78;100.00
9523;BME280;63165;43.016;25.784;2023-09-07T00:05:41;100575.50;;;18.72;100.00
9523;BME280;63165;43.016;25.784;2023-09-07T00:08:09;100580.88;;;18.71;100.00
9523;BME280;63165;43.016;25.784;2023-09-07T00:10:36;100570.38;;;18.68;99.63
9523;BME280;63165;43.016;25.784;2023-09-07T00:13:04;100575.78;;;18.65;100.00
9523;BME280;63165;43.016;25.784;2023-09-07T00:15:36;100572.50;;;18.59;99.56
9523;BME280;63165;43.016;25.784;2023-09-07T00:18:04;100579.72;;;18.56;99.45
9523;BME280;63165;43.016;25.784;2023-09-07T00:20:31;100576.22;;;18.55;98.88
9523;BME280;63165;43.016;25.784;2023-09-07T00:22:59;100579.81;;;18.53;99.46
9523;BME280;63165;43.016;25.784;2023-09-07T00:25:27;100573.84;;;18.48;99.15
9523;BME280;63165;43.016;25.784;2023-09-07T00:27:54;100574.91;;;18.43;99.75
9523;BME280;63165;43.016;25.784;2023-09-07T00:30:23;100556.72;;;18.34;99.98
9523;BME280;63165;43.016;25.784;2023-09-07T00:32:50;100572.56;;;18.36;100.00
9523;BME280;63165;43.016;25.784;2023-09-07T00:35:17;100572.78;;;18.31;99.92
9523;BME280;63165;43.016;25.784;2023-09-07T00:37:44;100576.28;;;18.32;100.00
9523;BME280;63165;43.016;25.784;2023-09-07T00:40:12;100575.59;;;18.27;99.84
9523;BME280;63165;43.016;25.784;2023-09-07T00:42:39;100564.31;;;17.99;100.00
9523;BME280;63165;43.016;25.784;2023-09-07T00:45:07;100606.09;;;18.15;99.77
9523;BME280;63165;43.016;25.784;2023-09-07T00:47:36;100606.44;;;18.06;100.00
9523;BME280;63165;43.016;25.784;2023-09-07T00:50:05;100584.31;;;18.07;99.60
9523;BME280;63165;43.016;25.784;2023-09-07T00:52:33;100582.72;;;18.02;100.00
9523;BME280;63165;43.016;25.784;2023-09-07T00:55:02;100585.88;;;17.90;100.00
9523;BME280;63165;43.016;25.784;2023-09-07T00:57:30;100585.66;;;17.95;100.00
9523;BME280;63165;43.016;25.784;2023-09-07T00:59:57;100571.88;;;17.87;100.00
9523;BME280;63165;43.016;25.784;2023-09-07T01:02:24;100591.97;;;17.92;100.00
9523;BME280;63165;43.016;25.784;2023-09-07T01:04:53;100583.31;;;17.87;100.00
9523;BME280;63165;43.016;25.784;2023-09-07T01:07:23;100581.69;;;17.83;100.00
9523;BME280;63165;43.016;25.784;2023-09-07T01:09:55;100586.03;;;17.85;100.00
9523;BME280;63165;43.016;25.784;2023-09-07T01:12:23;100579.88;;;17.83;100.00
9523;BME280;63165;43.016;25.784;2023-09-07T01:14:50;100581.78;;;17.80;100.00
9523;BME280;63165;43.016;25.784;2023-09-07T01:17:18;100585.47;;;17.76;100.00
9523;BME280;63165;43.016;25.784;2023-09-07T01:19:48;100585.44;;;17.77;100.00
9523;BME280;63165;43.016;25.784;2023-09-07T01:22:19;100558.63;;;17.63;100.00
9523;BME280;63165;43.016;25.784;2023-09-07T01:24:48;100574.69;;;17.80;100.00
9523;BME280;63165;43.016;25.784;2023-09-07T01:27:17;100576.75;;;17.74;100.00
9523;BME280;63165;43.016;25.784;2023-09-07T01:29:44;100555.22;;;17.59;100.00
9523;BME280;63165;43.016;25.784;2023-09-07T01:32:11;100570.50;;;17.75;100.00
9523;BME280;63165;43.016;25.784;2023-09-07T01:34:39;100542.84;;;17.60;100.00
9523;BME280;63165;43.016;25.784;2023-09-07T01:37:06;100555.97;;;17.63;100.00
9523;BME280;63165;43.016;25.784;2023-09-07T01:39:34;100588.97;;;17.76;100.00
9523;BME280;63165;43.016;25.784;2023-09-07T01:42:02;100571.44;;;17.74;100.00
9523;BME280;63165;43.016;25.784;2023-09-07T01:44:30;100569.78;;;17.71;100.00
9523;BME280;63165;43.016;25.784;2023-09-07T01:46:57;100570.59;;;17.73;100.00
9523;BME280;63165;43.016;25.784;2023-09-07T01:49:24;100535.19;;;17.52;100.00
9523;BME280;63165;43.016;25.784;2023-09-07T01:51:51;100568.16;;;17.67;100.00
9523;BME280;63165;43.016;25.784;2023-09-07T01:54:21;100569.16;;;17.64;100.00
9523;BME280;63165;43.016;25.784;2023-09-07T01:56:49;100552.75;;;17.55;100.00
9523;BME280;63165;43.016;25.784;2023-09-07T01:59:16;100571.78;;;17.64;100.00
9523;BME280;63165;43.016;25.784;2023-09-07T02:01:43;100564.94;;;17.59;100.00
9523;BME280;63165;43.016;25.784;2023-09-07T02:04:10;100564.09;;;17.58;100.00
9523;BME280;63165;43.016;25.784;2023-09-07T02:06:38;100572.84;;;17.60;100.00
9523;BME280;63165;43.016;25.784;2023-09-07T02:09:05;100567.59;;;17.59;100.00
9523;BME280;63165;43.016;25.784;2023-09-07T02:11:33;100558.97;;;17.54;100.00
9523;BME280;63165;43.016;25.784;2023-09-07T02:14:02;100572.78;;;17.62;100.00
9523;BME280;63165;43.016;25.784;2023-09-07T02:16:29;100581.72;;;17.58;100.00
9523;BME280;63165;43.016;25.784;2023-09-07T02:19:01;100572.09;;;17.57;100.00
9523;BME280;63165;43.016;25.784;2023-09-07T02:21:29;100580.66;;;17.40;100.00
9523;BME280;63165;43.016;25.784;2023-09-07T02:23:56;100581.06;;;17.53;100.00
9523;BME280;63165;43.016;25.784;2023-09-07T02:26:23;100576.25;;;17.39;100.00
9523;BME280;63165;43.016;25.784;2023-09-07T02:28:51;100580.75;;;17.37;100.00
9523;BME280;63165;43.016;25.784;2023-09-07T02:31:20;100583.38;;;17.37;100.00
9523;BME280;63165;43.016;25.784;2023-09-07T02:33:47;100568.59;;;17.31;100.00
9523;BME280;63165;43.016;25.784;2023-09-07T02:36:14;100575.63;;;17.32;100.00
9523;BME280;63165;43.016;25.784;2023-09-07T02:38:41;100577.72;;;17.22;100.00
9523;BME280;63165;43.016;25.784;2023-09-07T02:41:09;100572.75;;;17.13;100.00
9523;BME280;63165;43.016;25.784;2023-09-07T02:43:36;100580.38;;;17.22;100.00
9523;BME280;63165;43.016;25.784;2023-09-07T02:46:03;100567.69;;;17.07;100.00
9523;BME280;63165;43.016;25.784;2023-09-07T02:48:32;100571.16;;;17.09;100.00
9523;BME280;63165;43.016;25.784;2023-09-07T02:51:05;100568.50;;;17.09;100.00
9523;BME280;63165;43.016;25.784;2023-09-07T02:53:32;100577.38;;;17.08;100.00
9523;BME280;63165;43.016;25.784;2023-09-07T02:55:59;100580.97;;;17.05;100.00
9523;BME280;63165;43.016;25.784;2023-09-07T02:58:30;100550.00;;;16.84;100.00
9523;BME280;63165;43.016;25.784;2023-09-07T03:00:57;100572.63;;;16.93;100.00
9523;BME280;63165;43.016;25.784;2023-09-07T03:03:24;100569.91;;;16.94;100.00
9523;BME280;63165;43.016;25.784;2023-09-07T03:05:53;100587.78;;;16.87;100.00
9523;BME280;63165;43.016;25.784;2023-09-07T03:08:20;100584.31;;;16.85;100.00
9523;BME280;63165;43.016;25.784;2023-09-07T03:10:49;100579.97;;;16.83;100.00
9523;BME280;63165;43.016;25.784;2023-09-07T03:13:16;100576.75;;;16.73;100.00
9523;BME280;63165;43.016;25.784;2023-09-07T03:15:43;100571.34;;;16.78;100.00
9523;BME280;63165;43.016;25.784;2023-09-07T03:18:11;100575.88;;;16.74;100.00
9523;BME280;63165;43.016;25.784;2023-09-07T03:20:38;100614.56;;;16.75;100.00
9523;BME280;63165;43.016;25.784;2023-09-07T03:26:34;100588.44;;;16.66;100.00
9523;BME280;63165;43.016;25.784;2023-09-07T03:29:01;100611.47;;;16.62;100.00
9523;BME280;63165;43.016;25.784;2023-09-07T03:31:29;100598.25;;;16.62;100.00
9523;BME280;63165;43.016;25.784;2023-09-07T03:33:56;100602.97;;;16.53;100.00
9523;BME280;63165;43.016;25.784;2023-09-07T03:36:23;100595.06;;;16.53;100.00
9523;BME280;63165;43.016;25.784;2023-09-07T03:38:51;100607.44;;;16.50;100.00
9523;BME280;63165;43.016;25.784;2023-09-07T03:41:18;100613.63;;;16.49;100.00
9523;BME280;63165;43.016;25.784;2023-09-07T03:43:46;100610.34;;;16.43;100.00
9523;BME280;63165;43.016;25.784;2023-09-07T03:46:14;100591.41;;;16.28;100.00
9523;BME280;63165;43.016;25.784;2023-09-07T03:48:41;100608.13;;;16.29;100.00
9523;BME280;63165;43.016;25.784;2023-09-07T03:51:09;100637.72;;;16.40;100.00
9523;BME280;63165;43.016;25.784;2023-09-07T03:53:36;100622.81;;;16.38;100.00
9523;BME280;63165;43.016;25.784;2023-09-07T03:56:03;100614.91;;;16.38;100.00
9523;BME280;63165;43.016;25.784;2023-09-07T03:58:31;100626.56;;;16.30;100.00
9523;BME280;63165;43.016;25.784;2023-09-07T04:01:00;100635.53;;;16.25;100.00
9523;BME280;63165;43.016;25.784;2023-09-07T04:03:27;100628.38;;;16.28;100.00
9523;BME280;63165;43.016;25.784;2023-09-07T04:05:55;100626.69;;;16.27;100.00
9523;BME280;63165;43.016;25.784;2023-09-07T04:08:22;100614.53;;;16.22;100.00
9523;BME280;63165;43.016;25.784;2023-09-07T04:10:50;100626.00;;;16.21;100.00
9523;BME280;63165;43.016;25.784;2023-09-07T04:13:17;100653.63;;;16.39;100.00
9523;BME280;63165;43.016;25.784;2023-09-07T04:15:45;100629.69;;;16.43;100.00
9523;BME280;63165;43.016;25.784;2023-09-07T04:18:14;100629.59;;;16.46;100.00
9523;BME280;63165;43.016;25.784;2023-09-07T04:20:42;100631.22;;;16.50;100.00
9523;BME280;63165;43.016;25.784;2023-09-07T04:23:10;100646.25;;;16.48;100.00
9523;BME280;63165;43.016;25.784;2023-09-07T04:25:37;100624.59;;;16.37;100.00
9523;BME280;63165;43.016;25.784;2023-09-07T04:28:06;100655.81;;;16.53;100.00
9523;BME280;63165;43.016;25.784;2023-09-07T04:30:36;100660.03;;;16.58;100.00
9523;BME280;63165;43.016;25.784;2023-09-07T04:33:03;100644.09;;;16.61;100.00
9523;BME280;63165;43.016;25.784;2023-09-07T04:35:32;100645.03;;;16.59;100.00
9523;BME280;63165;43.016;25.784;2023-09-07T04:38:00;100654.31;;;16.72;100.00
9523;BME280;63165;43.016;25.784;2023-09-07T04:40:27;100656.84;;;16.75;100.00
9523;BME280;63165;43.016;25.784;2023-09-07T04:42:54;100643.59;;;16.77;100.00
9523;BME280;63165;43.016;25.784;2023-09-07T04:45:21;100650.31;;;16.87;100.00
9523;BME280;63165;43.016;25.784;2023-09-07T04:47:49;100642.56;;;16.82;100.00
9523;BME280;63165;43.016;25.784;2023-09-07T04:50:17;100656.19;;;16.97;100.00
9523;BME280;63165;43.016;25.784;2023-09-07T04:52:45;100667.72;;;16.94;100.00
9523;BME280;63165;43.016;25.784;2023-09-07T04:58:14;100652.22;;;17.10;100.00
9523;BME280;63165;43.016;25.784;2023-09-07T05:00:41;100647.38;;;17.23;100.00
9523;BME280;63165;43.016;25.784;2023-09-07T05:03:08;100656.88;;;17.29;100.00
9523;BME280;63165;43.016;25.784;2023-09-07T05:05:35;100662.53;;;17.43;100.00
9523;BME280;63165;43.016;25.784;2023-09-07T05:08:05;100665.13;;;17.44;100.00
9523;BME280;63165;43.016;25.784;2023-09-07T05:10:33;100663.97;;;17.52;100.00
9523;BME280;63165;43.016;25.784;2023-09-07T05:13:00;100654.47;;;17.46;100.00
9523;BME280;63165;43.016;25.784;2023-09-07T05:15:27;100646.03;;;17.60;100.00
9523;BME280;63165;43.016;25.784;2023-09-07T05:17:54;100657.94;;;17.73;100.00
9523;BME280;63165;43.016;25.784;2023-09-07T05:20:22;100661.19;;;17.80;100.00
9523;BME280;63165;43.016;25.784;2023-09-07T05:25:48;100674.59;;;18.00;100.00
9523;BME280;63165;43.016;25.784;2023-09-07T05:28:18;100660.91;;;18.13;100.00
9523;BME280;63165;43.016;25.784;2023-09-07T05:30:45;100665.72;;;18.25;100.00
9523;BME280;63165;43.016;25.784;2023-09-07T05:33:14;100664.44;;;18.35;100.00
9523;BME280;63165;43.016;25.784;2023-09-07T05:35:42;100660.81;;;18.38;100.00
9523;BME280;63165;43.016;25.784;2023-09-07T05:38:11;100657.03;;;18.43;100.00
9523;BME280;63165;43.016;25.784;2023-09-07T05:40:40;100648.78;;;18.51;100.00
9523;BME280;63165;43.016;25.784;2023-09-07T05:43:09;100677.78;;;18.78;100.00
9523;BME280;63165;43.016;25.784;2023-09-07T05:45:39;100669.38;;;18.89;100.00
9523;BME280;63165;43.016;25.784;2023-09-07T05:48:07;100667.16;;;19.00;100.00
9523;BME280;63165;43.016;25.784;2023-09-07T05:50:36;100660.56;;;19.10;100.00
9523;BME280;63165;43.016;25.784;2023-09-07T05:53:04;100666.03;;;19.26;100.00
9523;BME280;63165;43.016;25.784;2023-09-07T05:55:31;100667.78;;;19.27;100.00
9523;BME280;63165;43.016;25.784;2023-09-07T05:57:59;100665.53;;;19.38;100.00
9523;BME280;63165;43.016;25.784;2023-09-07T06:00:28;100671.16;;;19.51;100.00
9523;BME280;63165;43.016;25.784;2023-09-07T06:02:55;100681.03;;;19.68;100.00
9523;BME280;63165;43.016;25.784;2023-09-07T06:05:23;100676.47;;;19.72;100.00
9523;BME280;63165;43.016;25.784;2023-09-07T06:07:50;100682.25;;;19.82;99.78
9523;BME280;63165;43.016;25.784;2023-09-07T06:10:17;100684.53;;;19.89;98.81
9523;BME280;63165;43.016;25.784;2023-09-07T06:12:45;100678.69;;;20.02;98.61
9523;BME280;63165;43.016;25.784;2023-09-07T06:15:12;100672.78;;;20.14;96.62
9523;BME280;63165;43.016;25.784;2023-09-07T06:17:41;100663.97;;;20.13;94.85
9523;BME280;63165;43.016;25.784;2023-09-07T06:20:09;100671.38;;;20.26;94.92
9523;BME280;63165;43.016;25.784;2023-09-07T06:22:36;100686.78;;;20.36;94.83
9523;BME280;63165;43.016;25.784;2023-09-07T06:25:04;100666.59;;;20.51;93.45
9523;BME280;63165;43.016;25.784;2023-09-07T06:27:31;100675.53;;;20.69;91.87
9523;BME280;63165;43.016;25.784;2023-09-07T06:29:58;100658.97;;;20.82;90.15
9523;BME280;63165;43.016;25.784;2023-09-07T06:32:26;100659.44;;;20.90;88.97
9523;BME280;63165;43.016;25.784;2023-09-07T06:34:54;100659.69;;;21.03;87.70
9523;BME280;63165;43.016;25.784;2023-09-07T06:37:21;100671.03;;;21.24;87.16
9523;BME280;63165;43.016;25.784;2023-09-07T06:39:50;100657.19;;;21.35;86.78
9523;BME280;63165;43.016;25.784;2023-09-07T06:42:17;100668.78;;;21.51;85.62
9523;BME280;63165;43.016;25.784;2023-09-07T06:44:44;100663.66;;;21.64;85.88
9523;BME280;63165;43.016;25.784;2023-09-07T06:47:11;100666.38;;;21.80;86.21
9523;BME280;63165;43.016;25.784;2023-09-07T06:49:39;100663.34;;;22.03;85.04
9523;BME280;63165;43.016;25.784;2023-09-07T06:52:07;100668.09;;;22.30;82.81
9523;BME280;63165;43.016;25.784;2023-09-07T06:54:34;100660.72;;;22.35;79.94
9523;BME280;63165;43.016;25.784;2023-09-07T06:57:02;100646.19;;;22.41;78.06
9523;BME280;63165;43.016;25.784;2023-09-07T06:59:29;100676.41;;;22.72;77.07
9523;BME280;63165;43.016;25.784;2023-09-07T07:01:56;100662.09;;;22.88;78.09
9523;BME280;63165;43.016;25.784;2023-09-07T07:04:25;100663.03;;;23.03;77.97
9523;BME280;63165;43.016;25.784;2023-09-07T07:06:52;100675.69;;;23.16;74.66
9523;BME280;63165;43.016;25.784;2023-09-07T07:09:21;100664.34;;;23.26;72.12
9523;BME280;63165;43.016;25.784;2023-09-07T07:11:48;100667.13;;;23.39;71.78
9523;BME280;63165;43.016;25.784;2023-09-07T07:14:16;100663.31;;;23.43;71.01
9523;BME280;63165;43.016;25.784;2023-09-07T07:16:43;100665.63;;;23.64;71.92
9523;BME280;63165;43.016;25.784;2023-09-07T07:19:10;100666.44;;;23.80;70.52
9523;BME280;63165;43.016;25.784;2023-09-07T07:21:37;100668.44;;;23.91;68.58
9523;BME280;63165;43.016;25.784;2023-09-07T07:24:05;100667.78;;;24.02;67.33
9523;BME280;63165;43.016;25.784;2023-09-07T07:26:34;100684.00;;;24.13;68.13
9523;BME280;63165;43.016;25.784;2023-09-07T07:29:02;100654.38;;;24.16;67.38
9523;BME280;63165;43.016;25.784;2023-09-07T07:31:29;100658.19;;;24.27;66.74
9523;BME280;63165;43.016;25.784;2023-09-07T07:33:57;100671.22;;;24.46;67.10
9523;BME280;63165;43.016;25.784;2023-09-07T07:36:24;100661.94;;;24.51;65.83
9523;BME280;63165;43.016;25.784;2023-09-07T07:38:52;100662.88;;;24.65;65.27
9523;BME280;63165;43.016;25.784;2023-09-07T07:41:20;100653.63;;;24.83;65.84
9523;BME280;63165;43.016;25.784;2023-09-07T07:43:48;100645.53;;;24.97;64.49
9523;BME280;63165;43.016;25.784;2023-09-07T07:46:16;100649.09;;;25.11;64.51
9523;BME280;63165;43.016;25.784;2023-09-07T07:48:45;100644.81;;;25.21;64.34
9523;BME280;63165;43.016;25.784;2023-09-07T07:51:12;100643.69;;;25.25;64.74
9523;BME280;63165;43.016;25.784;2023-09-07T07:53:40;100638.66;;;25.46;63.39
9523;BME280;63165;43.016;25.784;2023-09-07T07:56:14;100645.72;;;25.60;63.91
9523;BME280;63165;43.016;25.784;2023-09-07T07:58:42;100633.06;;;25.75;63.24
9523;BME280;63165;43.016;25.784;2023-09-07T08:01:14;100622.78;;;25.82;62.46
9523;BME280;63165;43.016;25.784;2023-09-07T08:03:42;100621.91;;;25.94;60.40
9523;BME280;63165;43.016;25.784;2023-09-07T08:06:10;100628.66;;;26.00;61.50
9523;BME280;63165;43.016;25.784;2023-09-07T08:08:37;100621.88;;;26.07;60.55
9523;BME280;63165;43.016;25.784;2023-09-07T08:11:05;100646.06;;;26.31;60.47
9523;BME280;63165;43.016;25.784;2023-09-07T08:13:32;100637.44;;;26.39;58.95
9523;BME280;63165;43.016;25.784;2023-09-07T08:16:00;100620.44;;;26.51;58.79
9523;BME280;63165;43.016;25.784;2023-09-07T08:18:29;100614.44;;;26.60;57.87
9523;BME280;63165;43.016;25.784;2023-09-07T08:20:59;100620.06;;;26.68;58.34
9523;BME280;63165;43.016;25.784;2023-09-07T08:23:26;100622.16;;;26.76;59.06
9523;BME280;63165;43.016;25.784;2023-09-07T08:25:54;100591.38;;;26.69;57.71
9523;BME280;63165;43.016;25.784;2023-09-07T08:28:21;100613.34;;;26.98;56.32
9523;BME280;63165;43.016;25.784;2023-09-07T08:30:49;100609.94;;;27.07;56.74
9523;BME280;63165;43.016;25.784;2023-09-07T08:33:19;100588.31;;;26.98;56.49
9523;BME280;63165;43.016;25.784;2023-09-07T08:35:53;100619.19;;;27.27;55.48
9523;BME280;63165;43.016;25.784;2023-09-07T08:38:21;100618.56;;;27.35;56.83
9523;BME280;63165;43.016;25.784;2023-09-07T08:40:53;100618.34;;;27.49;56.18
9523;BME280;63165;43.016;25.784;2023-09-07T08:43:21;100621.91;;;27.61;54.88
9523;BME280;63165;43.016;25.784;2023-09-07T08:45:51;100626.44;;;27.72;55.56
9523;BME280;63165;43.016;25.784;2023-09-07T08:48:24;100622.13;;;27.81;54.23
9523;BME280;63165;43.016;25.784;2023-09-07T08:50:54;100616.53;;;27.84;53.81
9523;BME280;63165;43.016;25.784;2023-09-07T08:53:22;100607.09;;;27.78;52.73
9523;BME280;63165;43.016;25.784;2023-09-07T08:55:50;100618.72;;;27.90;54.47
9523;BME280;63165;43.016;25.784;2023-09-07T08:58:17;100614.06;;;28.03;53.89
9523;BME280;63165;43.016;25.784;2023-09-07T09:00:44;100617.00;;;28.12;53.12
9523;BME280;63165;43.016;25.784;2023-09-07T09:03:12;100617.22;;;28.20;53.06
9523;BME280;63165;43.016;25.784;2023-09-07T09:05:39;100615.50;;;28.30;52.55
9523;BME280;63165;43.016;25.784;2023-09-07T09:08:08;100618.66;;;28.35;51.40
9523;BME280;63165;43.016;25.784;2023-09-07T09:10:38;100611.56;;;28.34;51.14
9523;BME280;63165;43.016;25.784;2023-09-07T09:13:06;100608.88;;;28.34;51.27
9523;BME280;63165;43.016;25.784;2023-09-07T09:15:33;100605.66;;;28.40;50.95
9523;BME280;63165;43.016;25.784;2023-09-07T09:18:09;100601.72;;;28.56;50.44
9523;BME280;63165;43.016;25.784;2023-09-07T09:20:38;100594.97;;;28.61;51.18
9523;BME280;63165;43.016;25.784;2023-09-07T09:23:06;100592.63;;;28.68;51.55
9523;BME280;63165;43.016;25.784;2023-09-07T09:25:34;100592.31;;;28.82;50.03
9523;BME280;63165;43.016;25.784;2023-09-07T09:28:02;100606.22;;;28.88;49.81
9523;BME280;63165;43.016;25.784;2023-09-07T09:30:29;100599.22;;;28.96;49.69
9523;BME280;63165;43.016;25.784;2023-09-07T09:32:56;100590.28;;;28.96;48.93
9523;BME280;63165;43.016;25.784;2023-09-07T09:35:26;100588.03;;;29.01;48.87
9523;BME280;63165;43.016;25.784;2023-09-07T09:37:53;100591.06;;;29.08;47.42
9523;BME280;63165;43.016;25.784;2023-09-07T09:40:20;100585.53;;;29.09;47.46
9523;BME280;63165;43.016;25.784;2023-09-07T09:42:52;100580.28;;;29.08;47.12
9523;BME280;63165;43.016;25.784;2023-09-07T09:45:22;100594.13;;;29.14;46.33
9523;BME280;63165;43.016;25.784;2023-09-07T09:47:50;100573.88;;;29.20;46.97
9523;BME280;63165;43.016;25.784;2023-09-07T09:50:18;100582.56;;;29.23;46.68
9523;BME280;63165;43.016;25.784;2023-09-07T09:52:47;100573.34;;;29.26;46.68
9523;BME280;63165;43.016;25.784;2023-09-07T09:55:15;100568.78;;;29.27;45.58
9523;BME280;63165;43.016;25.784;2023-09-07T09:57:42;100575.22;;;29.35;46.55
9523;BME280;63165;43.016;25.784;2023-09-07T10:00:12;100552.66;;;29.36;46.30
9523;BME280;63165;43.016;25.784;2023-09-07T10:02:59;100547.00;;;29.39;46.80
9523;BME280;63165;43.016;25.784;2023-09-07T10:05:28;100559.34;;;29.42;45.82
9523;BME280;63165;43.016;25.784;2023-09-07T10:08:00;100542.75;;;29.37;45.58
9523;BME280;63165;43.016;25.784;2023-09-07T10:10:35;100526.03;;;29.43;46.87
9523;BME280;63165;43.016;25.784;2023-09-07T10:13:03;100540.84;;;29.58;45.55
9523;BME280;63165;43.016;25.784;2023-09-07T10:15:32;100537.31;;;29.68;45.38
9523;BME280;63165;43.016;25.784;2023-09-07T10:18:10;100529.56;;;29.74;44.17
9523;BME280;63165;43.016;25.784;2023-09-07T10:20:50;100517.47;;;29.69;43.16
9523;BME280;63165;43.016;25.784;2023-09-07T10:23:18;100526.75;;;29.86;44.32
9523;BME280;63165;43.016;25.784;2023-09-07T10:25:49;100525.63;;;29.98;42.78
9523;BME280;63165;43.016;25.784;2023-09-07T10:28:23;100527.63;;;30.06;42.30
9523;BME280;63165;43.016;25.784;2023-09-07T10:31:06;100510.31;;;30.08;42.03
9523;BME280;63165;43.016;25.784;2023-09-07T10:34:38;100512.31;;;30.06;42.12
9523;BME280;63165;43.016;25.784;2023-09-07T10:37:28;100517.41;;;29.99;42.04
9523;BME280;63165;43.016;25.784;2023-09-07T10:39:56;100517.97;;;29.93;40.94
9523;BME280;63165;43.016;25.784;2023-09-07T10:42:24;100514.56;;;29.91;40.66
9523;BME280;63165;43.016;25.784;2023-09-07T10:44:50;100507.88;;;29.95;40.35
9523;BME280;63165;43.016;25.784;2023-09-07T10:47:19;100492.13;;;30.00;40.71
9523;BME280;63165;43.016;25.784;2023-09-07T10:49:46;100490.72;;;30.06;40.88
9523;BME280;63165;43.016;25.784;2023-09-07T10:52:14;100472.09;;;29.93;41.16
9523;BME280;63165;43.016;25.784;2023-09-07T10:54:41;100492.81;;;30.32;40.57
9523;BME280;63165;43.016;25.784;2023-09-07T10:57:11;100478.25;;;30.34;39.58
9523;BME280;63165;43.016;25.784;2023-09-07T10:59:44;100472.53;;;30.37;40.34
9523;BME280;63165;43.016;25.784;2023-09-07T11:02:11;100491.53;;;30.65;38.67
9523;BME280;63165;43.016;25.784;2023-09-07T11:04:41;100490.38;;;30.77;39.13
9523;BME280;63165;43.016;25.784;2023-09-07T11:07:09;100484.72;;;30.90;39.22
9523;BME280;63165;43.016;25.784;2023-09-07T11:09:40;100477.25;;;31.02;39.38
9523;BME280;63165;43.016;25.784;2023-09-07T11:12:07;100475.81;;;31.08;38.21
9523;BME280;63165;43.016;25.784;2023-09-07T11:14:35;100479.63;;;31.15;37.89
9523;BME280;63165;43.016;25.784;2023-09-07T11:17:02;100471.94;;;31.10;37.69
9523;BME280;63165;43.016;25.784;2023-09-07T11:19:32;100468.97;;;31.13;36.99
9523;BME280;63165;43.016;25.784;2023-09-07T11:22:01;100453.34;;;31.07;38.27
9523;BME280;63165;43.016;25.784;2023-09-07T11:24:30;100455.72;;;31.20;36.72
9523;BME280;63165;43.016;25.784;2023-09-07T11:26:58;100449.28;;;31.21;35.77
9523;BME280;63165;43.016;25.784;2023-09-07T11:29:25;100448.78;;;31.35;35.80
9523;BME280;63165;43.016;25.784;2023-09-07T11:31:53;100447.47;;;31.49;36.81
9523;BME280;63165;43.016;25.784;2023-09-07T11:34:20;100457.22;;;31.60;36.32
9523;BME280;63165;43.016;25.784;2023-09-07T11:36:47;100476.41;;;31.67;35.89
9523;BME280;63165;43.016;25.784;2023-09-07T11:39:16;100454.38;;;31.62;34.52
9523;BME280;63165;43.016;25.784;2023-09-07T11:41:44;100446.63;;;31.49;34.81
9523;BME280;63165;43.016;25.784;2023-09-07T11:44:11;100439.53;;;31.38;34.82
9523;BME280;63165;43.016;25.784;2023-09-07T11:46:39;100441.63;;;31.44;35.57
9523;BME280;63165;43.016;25.784;2023-09-07T11:49:06;100432.09;;;31.40;34.91
9523;BME280;63165;43.016;25.784;2023-09-07T11:51:37;100444.47;;;31.52;34.57
9523;BME280;63165;43.016;25.784;2023-09-07T11:54:04;100445.69;;;31.58;34.61
9523;BME280;63165;43.016;25.784;2023-09-07T11:56:33;100436.81;;;31.66;34.61
9523;BME280;63165;43.016;25.784;2023-09-07T11:59:05;100430.34;;;31.77;35.01
9523;BME280;63165;43.016;25.784;2023-09-07T12:01:32;100417.09;;;31.73;34.45
9523;BME280;63165;43.016;25.784;2023-09-07T12:03:59;100432.13;;;31.86;35.03
9523;BME280;63165;43.016;25.784;2023-09-07T12:06:26;100430.75;;;31.82;33.49
9523;BME280;63165;43.016;25.784;2023-09-07T12:09:00;100418.91;;;31.65;34.08
9523;BME280;63165;43.016;25.784;2023-09-07T12:11:27;100429.06;;;31.53;34.93
9523;BME280;63165;43.016;25.784;2023-09-07T12:13:57;100428.13;;;31.44;34.86
9523;BME280;63165;43.016;25.784;2023-09-07T12:16:25;100428.16;;;31.34;35.33
9523;BME280;63165;43.016;25.784;2023-09-07T12:18:53;100423.97;;;31.22;35.90
9523;BME280;63165;43.016;25.784;2023-09-07T12:21:20;100416.63;;;31.14;35.83
9523;BME280;63165;43.016;25.784;2023-09-07T12:23:48;100432.56;;;31.08;35.75
9523;BME280;63165;43.016;25.784;2023-09-07T12:26:15;100418.94;;;30.90;36.06
9523;BME280;63165;43.016;25.784;2023-09-07T12:28:45;100420.84;;;30.80;36.70
9523;BME280;63165;43.016;25.784;2023-09-07T12:31:13;100417.88;;;30.73;37.00
9523;BME280;63165;43.016;25.784;2023-09-07T12:33:40;100410.38;;;30.67;36.85
9523;BME280;63165;43.016;25.784;2023-09-07T12:36:08;100409.97;;;30.62;37.89
9523;BME280;63165;43.016;25.784;2023-09-07T12:38:35;100424.63;;;30.59;37.15
9523;BME280;63165;43.016;25.784;2023-09-07T12:41:03;100385.84;;;30.31;37.21
9523;BME280;63165;43.016;25.784;2023-09-07T12:43:30;100404.06;;;30.38;37.59
9523;BME280;63165;43.016;25.784;2023-09-07T12:45:58;100417.41;;;30.40;37.22
9523;BME280;63165;43.016;25.784;2023-09-07T12:48:27;100401.06;;;30.42;36.73
9523;BME280;63165;43.016;25.784;2023-09-07T12:50:54;100406.69;;;30.68;36.21
9523;BME280;63165;43.016;25.784;2023-09-07T12:53:21;100402.97;;;30.69;36.66
9523;BME280;63165;43.016;25.784;2023-09-07T12:55:51;100406.38;;;30.71;36.76
9523;BME280;63165;43.016;25.784;2023-09-07T12:58:19;100407.91;;;30.83;38.24
9523;BME280;63165;43.016;25.784;2023-09-07T13:00:46;100404.78;;;30.78;38.46